createdAt,value
2019-01-30T00:04:52.976Z,79.14
2019-01-30T00:09:53.023Z,77.64
2019-01-30T00:14:52.008Z,77.51
2019-01-30T00:19:53.259Z,78.35
2019-01-30T00:24:53.365Z,77.94
2019-01-30T00:29:53.000Z,80.53
2019-01-30T00:34:53.028Z,81.31
2019-01-30T00:39:53.033Z,80.57
2019-01-30T00:44:53.336Z,80.53
2019-01-30T00:49:53.047Z,80.54
2019-01-30T00:54:53.261Z,81.35
2019-01-30T00:59:53.103Z,83.31
2019-01-30T01:04:53.058Z,83.70
2019-01-30T01:09:52.070Z,82.89
2019-01-30T01:14:52.133Z,83.25
2019-01-30T01:19:51.337Z,83.15
2019-01-30T01:24:52.137Z,84.79
2019-01-30T01:29:52.084Z,84.56
2019-01-30T01:34:51.538Z,85.23
2019-01-30T01:39:51.162Z,85.27
2019-01-30T01:44:50.075Z,84.48
2019-01-30T01:49:50.353Z,84.48
2019-01-30T01:54:50.118Z,83.14
2019-01-30T01:59:50.347Z,81.36
2019-01-30T02:04:51.150Z,80.34
2019-01-30T02:09:50.326Z,81.23
2019-01-30T02:14:50.126Z,81.36
2019-01-30T02:19:50.148Z,79.59
2019-01-30T02:24:50.237Z,80.04
2019-01-30T02:29:49.531Z,76.55
2019-01-30T02:34:48.773Z,77.61
2019-01-30T02:39:47.336Z,80.73
2019-01-30T02:44:47.182Z,81.16
2019-01-30T02:49:46.112Z,78.85
2019-01-30T02:54:46.569Z,80.42
2019-01-30T02:59:45.208Z,80.45
2019-01-30T03:04:45.373Z,81.05
2019-01-30T03:09:45.460Z,79.66
2019-01-30T03:14:44.553Z,78.89
2019-01-30T03:19:43.159Z,79.00
2019-01-30T03:24:42.464Z,78.98
2019-01-30T03:29:43.248Z,79.47
2019-01-30T03:34:42.173Z,80.17
2019-01-30T03:39:42.232Z,79.14
2019-01-30T03:44:41.189Z,80.96
2019-01-30T03:49:40.470Z,80.33
2019-01-30T03:54:40.186Z,79.81
2019-01-30T03:59:39.442Z,79.78
2019-01-30T04:04:38.775Z,80.39
2019-01-30T04:09:37.539Z,78.57
2019-01-30T04:14:36.329Z,78.72
2019-01-30T04:19:36.040Z,77.63
2019-01-30T04:24:35.257Z,77.84
2019-01-30T04:29:34.270Z,78.82
2019-01-30T04:34:34.270Z,79.01
2019-01-30T04:39:34.257Z,78.04
2019-01-30T04:44:35.650Z,78.38
2019-01-30T04:49:34.268Z,78.89
2019-01-30T04:54:33.879Z,79.48
2019-01-30T04:59:33.463Z,79.53
2019-01-30T05:04:32.251Z,79.46
2019-01-30T05:09:31.806Z,78.10
2019-01-30T05:14:31.374Z,77.50
2019-01-30T05:19:30.294Z,78.67
2019-01-30T05:24:31.370Z,79.23
2019-01-30T05:29:30.706Z,78.93
2019-01-30T05:34:31.455Z,79.21
2019-01-30T05:39:30.344Z,79.13
2019-01-30T05:44:29.330Z,78.17
2019-01-30T05:49:29.240Z,77.74
2019-01-30T05:54:29.438Z,78.05
2019-01-30T05:59:29.313Z,78.89
2019-01-30T06:04:29.360Z,79.65
2019-01-30T06:09:29.331Z,77.86
2019-01-30T06:14:29.387Z,79.53
2019-01-30T06:19:29.442Z,78.74
2019-01-30T06:24:29.549Z,78.47
2019-01-30T06:29:29.592Z,79.63
2019-01-30T06:34:29.360Z,79.78
2019-01-30T06:39:29.629Z,80.31
2019-01-30T06:44:28.393Z,78.77
2019-01-30T06:49:28.372Z,79.82
2019-01-30T06:54:29.468Z,77.99
2019-01-30T06:59:29.360Z,78.96
2019-01-30T07:04:28.388Z,80.07
2019-01-30T07:09:27.788Z,79.53
2019-01-30T07:14:28.400Z,79.57
2019-01-30T07:19:27.375Z,78.64
2019-01-30T07:24:28.407Z,78.48
2019-01-30T07:29:29.370Z,77.51
2019-01-30T07:34:29.682Z,78.02
2019-01-30T07:39:28.799Z,78.94
2019-01-30T07:44:29.458Z,78.83
2019-01-30T07:49:29.397Z,79.04
2019-01-30T07:54:29.408Z,76.94
2019-01-30T07:59:32.015Z,77.66
2019-01-30T08:04:30.291Z,77.36
2019-01-30T08:09:29.104Z,76.55
2019-01-30T08:14:27.750Z,77.36
2019-01-30T08:19:28.047Z,76.96
2019-01-30T08:24:28.250Z,77.28
2019-01-30T08:29:27.271Z,76.33
2019-01-30T08:34:27.287Z,76.69
2019-01-30T08:39:27.276Z,77.35
2019-01-30T08:44:27.040Z,76.50
2019-01-30T08:49:27.398Z,77.66
2019-01-30T08:54:27.067Z,78.99
2019-01-30T08:59:27.145Z,80.29
2019-01-30T09:04:27.072Z,80.92
2019-01-30T09:09:27.201Z,81.12
2019-01-30T09:14:27.079Z,81.85
2019-01-30T09:19:26.187Z,82.42
2019-01-30T09:24:26.113Z,83.50
2019-01-30T09:29:25.115Z,83.28
2019-01-30T09:34:25.121Z,84.16
2019-01-30T09:39:25.100Z,83.97
2019-01-30T09:44:25.137Z,83.82
2019-01-30T09:49:25.371Z,83.78
2019-01-30T09:54:25.118Z,84.18
2019-01-30T09:59:24.381Z,84.50
2019-01-30T10:04:25.109Z,84.77
2019-01-30T10:09:25.125Z,84.61
2019-01-30T10:14:25.238Z,84.55
2019-01-30T10:19:25.135Z,84.51
2019-01-30T10:24:28.922Z,84.67
2019-01-30T10:29:25.158Z,83.65
2019-01-30T10:34:24.151Z,84.65
2019-01-30T10:39:23.259Z,84.97
2019-01-30T10:44:23.161Z,84.91
2019-01-30T10:49:23.191Z,84.29
2019-01-30T10:54:23.158Z,84.14
2019-01-30T10:59:26.600Z,83.91
2019-01-30T11:04:24.190Z,83.96
2019-01-30T11:09:23.261Z,83.50
2019-01-30T11:14:23.194Z,83.72
2019-01-30T11:19:23.186Z,84.09
2019-01-30T11:24:24.237Z,84.06
2019-01-30T11:29:25.255Z,83.79
2019-01-30T11:34:24.433Z,83.83
2019-01-30T11:39:23.189Z,84.04
2019-01-30T11:44:23.203Z,83.96
2019-01-30T11:49:23.217Z,84.06
2019-01-30T11:54:22.275Z,84.07
2019-01-30T11:59:22.231Z,83.83
2019-01-30T12:04:21.305Z,83.92
2019-01-30T12:09:20.520Z,83.99
2019-01-30T12:14:20.223Z,84.18
2019-01-30T12:19:20.278Z,83.55
2019-01-30T12:24:20.247Z,83.82
2019-01-30T12:29:19.265Z,82.85
2019-01-30T12:34:28.070Z,83.27
2019-01-30T12:39:19.267Z,83.68
2019-01-30T12:44:18.263Z,83.05
2019-01-30T12:49:18.294Z,82.87
2019-01-30T12:54:18.304Z,82.98
2019-01-30T12:59:17.622Z,83.24
2019-01-30T13:04:19.257Z,82.15
2019-01-30T13:09:19.321Z,83.27
2019-01-30T13:14:18.344Z,84.26
2019-01-30T13:19:17.261Z,83.96
2019-01-30T13:24:16.407Z,84.19
2019-01-30T13:29:16.388Z,84.34
2019-01-30T13:34:16.367Z,83.83
2019-01-30T13:39:16.408Z,84.12
2019-01-30T13:44:15.281Z,83.63
2019-01-30T13:49:14.323Z,83.94
2019-01-30T13:54:14.312Z,84.07
2019-01-30T13:59:13.349Z,84.45
2019-01-30T14:09:13.303Z,85.44
2019-01-30T14:14:13.387Z,84.99
2019-01-30T14:19:13.323Z,85.13
2019-01-30T14:24:12.299Z,84.95
2019-01-30T14:29:12.354Z,84.53
2019-01-30T14:34:11.331Z,85.13
2019-01-30T14:39:12.412Z,84.94
2019-01-30T14:44:12.387Z,84.70
2019-01-30T14:49:12.419Z,84.98
2019-01-30T14:54:12.391Z,84.77
2019-01-30T14:59:12.380Z,85.20
2019-01-30T15:04:12.412Z,85.61
2019-01-30T15:09:11.656Z,85.24
2019-01-30T15:14:10.718Z,85.00
2019-01-30T15:19:11.398Z,85.42
2019-01-30T15:24:10.728Z,85.49
2019-01-30T15:29:10.382Z,86.43
2019-01-30T15:34:11.480Z,86.68
2019-01-30T15:39:11.423Z,88.04
2019-01-30T15:44:10.791Z,87.35
2019-01-30T15:49:09.406Z,88.07
2019-01-30T15:54:09.407Z,88.32
2019-01-30T15:59:09.400Z,89.24
2019-01-30T16:04:10.411Z,89.68
2019-01-30T16:09:09.417Z,89.75
2019-01-30T16:14:10.422Z,89.99
2019-01-30T16:19:10.431Z,89.84
2019-01-30T16:24:10.403Z,90.14
2019-01-30T16:29:11.504Z,90.36
2019-01-30T16:34:11.432Z,90.48
2019-01-30T16:39:11.494Z,90.82
2019-01-30T16:44:11.495Z,91.00
2019-01-30T16:49:16.523Z,90.69
2019-01-30T16:54:10.547Z,90.65
2019-01-30T16:59:10.007Z,90.68
2019-01-30T17:04:09.518Z,90.72
2019-01-30T17:09:09.517Z,90.85
2019-01-30T17:14:09.486Z,91.07
2019-01-30T17:19:08.510Z,91.08
2019-01-30T17:24:08.489Z,90.90
2019-01-30T17:29:07.840Z,90.70
2019-01-30T17:34:06.945Z,90.92
2019-01-30T17:39:07.521Z,90.80
2019-01-30T17:44:08.530Z,91.13
2019-01-30T17:49:08.590Z,90.96
2019-01-30T17:54:08.551Z,91.19
2019-01-30T17:59:08.519Z,91.11
2019-01-30T18:04:08.565Z,91.21
2019-01-30T18:09:08.533Z,91.32
2019-01-30T18:14:07.545Z,91.26
2019-01-30T18:19:07.546Z,91.35
2019-01-30T18:24:07.635Z,91.34
2019-01-30T18:29:06.871Z,91.44
2019-01-30T18:34:06.591Z,91.37
2019-01-30T18:39:05.704Z,91.31
2019-01-30T18:44:05.560Z,91.62
2019-01-30T18:49:05.723Z,91.54
2019-01-30T18:54:05.533Z,91.55
2019-01-30T18:59:05.570Z,91.49
2019-01-30T19:04:05.553Z,91.51
2019-01-30T19:09:04.587Z,91.63
2019-01-30T19:14:04.645Z,91.82
2019-01-30T19:19:04.619Z,91.88
2019-01-30T19:24:03.883Z,91.88
2019-01-30T19:29:03.594Z,91.76
2019-01-30T19:34:03.619Z,91.84
2019-01-30T19:39:03.689Z,91.86
2019-01-30T19:44:02.986Z,91.92
2019-01-30T19:49:03.691Z,91.86
2019-01-30T19:54:03.621Z,91.72
2019-01-30T19:59:03.828Z,91.69
2019-01-30T20:04:02.950Z,91.57
2019-01-30T20:09:02.723Z,91.36
2019-01-30T20:14:02.754Z,91.35
2019-01-30T20:19:03.684Z,91.31
2019-01-30T20:24:02.820Z,91.33
2019-01-30T20:29:02.685Z,91.19
2019-01-30T20:34:09.996Z,91.17
2019-01-30T20:39:01.690Z,91.29
2019-01-30T20:44:02.715Z,91.22
2019-01-30T20:49:01.644Z,91.22
2019-01-30T20:54:01.770Z,91.18
2019-01-30T20:59:01.662Z,91.10
2019-01-30T21:04:01.772Z,91.45
2019-01-30T21:09:01.665Z,91.14
2019-01-30T21:14:00.677Z,91.23
2019-01-30T21:19:01.834Z,91.09
2019-01-30T21:24:01.684Z,91.28
2019-01-30T21:29:01.000Z,91.23
2019-01-30T21:34:00.719Z,91.38
2019-01-30T21:38:59.733Z,91.55
2019-01-30T21:43:59.182Z,91.44
2019-01-30T21:48:58.696Z,91.62
2019-01-30T21:53:57.869Z,91.70
2019-01-30T21:58:56.794Z,91.69
2019-01-30T22:03:55.710Z,91.76
2019-01-30T22:08:55.987Z,91.53
2019-01-30T22:13:57.309Z,91.73
2019-01-30T22:18:54.700Z,91.82
2019-01-30T22:24:05.022Z,91.93
2019-01-30T22:28:54.748Z,91.89
2019-01-30T22:33:53.769Z,92.08
2019-01-30T22:38:52.911Z,91.98
2019-01-30T22:43:52.722Z,92.17
2019-01-30T22:48:51.754Z,92.32
2019-01-30T22:58:50.728Z,92.30
2019-01-30T23:03:50.770Z,92.01
2019-01-30T23:08:50.731Z,91.94
2019-01-30T23:13:51.737Z,91.84
2019-01-30T23:18:50.765Z,91.40
2019-01-30T23:23:50.808Z,91.64
2019-01-30T23:28:49.887Z,91.64
2019-01-30T23:33:49.804Z,91.64
2019-01-30T23:38:48.804Z,91.35
2019-01-30T23:43:48.085Z,91.19
2019-01-30T23:48:47.779Z,91.13
2019-01-30T23:53:47.839Z,91.01
2019-01-30T23:58:46.824Z,90.98
